sensor_id;sensor_type;location;lat;lon;timestamp;P1;durP1;ratioP1;P2;durP2;ratioP2
18812;SDS011;9534;51.140;6.296;2022-12-07T00:02:33;17.98;;;6.55;;
18812;SDS011;9534;51.140;6.296;2022-12-07T00:06:37;13.27;;;6.38;;
18812;SDS011;9534;51.140;6.296;2022-12-07T00:10:42;21.38;;;7.40;;
18812;SDS011;9534;51.140;6.296;2022-12-07T00:14:46;13.30;;;5.72;;
18812;SDS011;9534;51.140;6.296;2022-12-07T00:18:49;15.57;;;6.95;;
18812;SDS011;9534;51.140;6.296;2022-12-07T00:22:52;15.75;;;6.68;;
18812;SDS011;9534;51.140;6.296;2022-12-07T00:26:55;16.60;;;7.38;;
18812;SDS011;9534;51.140;6.296;2022-12-07T00:31:01;16.92;;;7.20;;
18812;SDS011;9534;51.140;6.296;2022-12-07T00:35:06;29.23;;;8.10;;
18812;SDS011;9534;51.140;6.296;2022-12-07T00:39:09;18.10;;;6.65;;
18812;SDS011;9534;51.140;6.296;2022-12-07T00:43:13;20.08;;;6.40;;
18812;SDS011;9534;51.140;6.296;2022-12-07T00:47:17;22.35;;;7.95;;
18812;SDS011;9534;51.140;6.296;2022-12-07T00:51:22;16.45;;;6.15;;
18812;SDS011;9534;51.140;6.296;2022-12-07T00:55:27;18.27;;;6.53;;
18812;SDS011;9534;51.140;6.296;2022-12-07T00:59:30;18.55;;;7.68;;
18812;SDS011;9534;51.140;6.296;2022-12-07T01:03:34;21.15;;;8.07;;
18812;SDS011;9534;51.140;6.296;2022-12-07T01:07:39;12.57;;;6.05;;
18812;SDS011;9534;51.140;6.296;2022-12-07T01:11:42;18.67;;;7.70;;
18812;SDS011;9534;51.140;6.296;2022-12-07T01:15:45;30.13;;;8.27;;
18812;SDS011;9534;51.140;6.296;2022-12-07T01:19:49;22.27;;;8.90;;
18812;SDS011;9534;51.140;6.296;2022-12-07T01:23:54;17.52;;;8.35;;
18812;SDS011;9534;51.140;6.296;2022-12-07T01:27:59;25.60;;;9.85;;
18812;SDS011;9534;51.140;6.296;2022-12-07T01:32:02;22.65;;;10.18;;
18812;SDS011;9534;51.140;6.296;2022-12-07T01:36:07;27.00;;;10.65;;
18812;SDS011;9534;51.140;6.296;2022-12-07T01:40:15;21.30;;;8.63;;
18812;SDS011;9534;51.140;6.296;2022-12-07T01:44:20;23.45;;;10.18;;
18812;SDS011;9534;51.140;6.296;2022-12-07T01:48:26;22.20;;;10.00;;
18812;SDS011;9534;51.140;6.296;2022-12-07T01:52:33;22.42;;;9.98;;
18812;SDS011;9534;51.140;6.296;2022-12-07T01:56:38;19.23;;;8.98;;
18812;SDS011;9534;51.140;6.296;2022-12-07T02:00:44;41.45;;;12.55;;
18812;SDS011;9534;51.140;6.296;2022-12-07T02:04:48;29.88;;;11.18;;
18812;SDS011;9534;51.140;6.296;2022-12-07T02:08:54;39.85;;;11.85;;
18812;SDS011;9534;51.140;6.296;2022-12-07T02:12:58;21.92;;;10.35;;
18812;SDS011;9534;51.140;6.296;2022-12-07T02:17:07;30.20;;;13.07;;
18812;SDS011;9534;51.140;6.296;2022-12-07T02:21:19;27.73;;;10.52;;
18812;SDS011;9534;51.140;6.296;2022-12-07T02:25:36;27.02;;;11.73;;
18812;SDS011;9534;51.140;6.296;2022-12-07T02:29:57;34.35;;;12.43;;
18812;SDS011;9534;51.140;6.296;2022-12-07T02:34:04;27.10;;;10.80;;
18812;SDS011;9534;51.140;6.296;2022-12-07T02:38:13;27.90;;;11.85;;
18812;SDS011;9534;51.140;6.296;2022-12-07T02:42:23;32.97;;;12.45;;
18812;SDS011;9534;51.140;6.296;2022-12-07T02:46:33;28.63;;;10.85;;
18812;SDS011;9534;51.140;6.296;2022-12-07T02:50:43;32.60;;;11.90;;
18812;SDS011;9534;51.140;6.296;2022-12-07T02:54:47;36.90;;;13.70;;
18812;SDS011;9534;51.140;6.296;2022-12-07T02:58:53;39.42;;;13.63;;
18812;SDS011;9534;51.140;6.296;2022-12-07T03:03:06;39.55;;;13.77;;
18812;SDS011;9534;51.140;6.296;2022-12-07T03:07:16;36.03;;;13.45;;
18812;SDS011;9534;51.140;6.296;2022-12-07T03:11:24;34.78;;;12.43;;
18812;SDS011;9534;51.140;6.296;2022-12-07T03:15:33;29.90;;;11.85;;
18812;SDS011;9534;51.140;6.296;2022-12-07T03:19:43;40.08;;;11.88;;
18812;SDS011;9534;51.140;6.296;2022-12-07T03:23:49;34.50;;;13.88;;
18812;SDS011;9534;51.140;6.296;2022-12-07T03:27:57;41.33;;;13.68;;
18812;SDS011;9534;51.140;6.296;2022-12-07T03:32:05;37.17;;;15.30;;
18812;SDS011;9534;51.140;6.296;2022-12-07T03:36:14;31.40;;;12.07;;
18812;SDS011;9534;51.140;6.296;2022-12-07T03:40:23;37.20;;;13.75;;
18812;SDS011;9534;51.140;6.296;2022-12-07T03:44:32;31.80;;;12.75;;
18812;SDS011;9534;51.140;6.296;2022-12-07T03:48:38;31.05;;;11.82;;
18812;SDS011;9534;51.140;6.296;2022-12-07T03:52:52;39.20;;;13.60;;
18812;SDS011;9534;51.140;6.296;2022-12-07T03:56:58;25.40;;;12.75;;
18812;SDS011;9534;51.140;6.296;2022-12-07T04:01:04;30.48;;;11.60;;
18812;SDS011;9534;51.140;6.296;2022-12-07T04:05:07;27.92;;;12.07;;
18812;SDS011;9534;51.140;6.296;2022-12-07T04:09:14;31.20;;;12.35;;
18812;SDS011;9534;51.140;6.296;2022-12-07T04:13:18;28.98;;;11.70;;
18812;SDS011;9534;51.140;6.296;2022-12-07T04:17:21;25.90;;;9.95;;
18812;SDS011;9534;51.140;6.296;2022-12-07T04:21:24;28.75;;;11.02;;
18812;SDS011;9534;51.140;6.296;2022-12-07T04:25:28;27.08;;;12.05;;
18812;SDS011;9534;51.140;6.296;2022-12-07T04:29:32;24.48;;;9.48;;
18812;SDS011;9534;51.140;6.296;2022-12-07T04:33:35;34.35;;;12.10;;
18812;SDS011;9534;51.140;6.296;2022-12-07T04:37:38;30.83;;;11.73;;
18812;SDS011;9534;51.140;6.296;2022-12-07T04:41:44;30.15;;;12.75;;
18812;SDS011;9534;51.140;6.296;2022-12-07T04:45:48;43.15;;;11.75;;
18812;SDS011;9534;51.140;6.296;2022-12-07T04:49:52;26.63;;;10.13;;
18812;SDS011;9534;51.140;6.296;2022-12-07T04:53:55;22.98;;;10.65;;
18812;SDS011;9534;51.140;6.296;2022-12-07T04:58:00;28.20;;;10.35;;
18812;SDS011;9534;51.140;6.296;2022-12-07T05:02:03;24.67;;;9.90;;
18812;SDS011;9534;51.140;6.296;2022-12-07T05:06:07;35.75;;;11.45;;
18812;SDS011;9534;51.140;6.296;2022-12-07T05:10:14;35.55;;;16.77;;
18812;SDS011;9534;51.140;6.296;2022-12-07T05:14:19;33.05;;;11.93;;
18812;SDS011;9534;51.140;6.296;2022-12-07T05:18:23;31.73;;;12.25;;
18812;SDS011;9534;51.140;6.296;2022-12-07T05:22:26;23.60;;;10.18;;
18812;SDS011;9534;51.140;6.296;2022-12-07T05:26:30;26.58;;;9.73;;
18812;SDS011;9534;51.140;6.296;2022-12-07T05:30:34;22.10;;;9.60;;
18812;SDS011;9534;51.140;6.296;2022-12-07T05:34:38;27.05;;;10.75;;
18812;SDS011;9534;51.140;6.296;2022-12-07T05:38:41;23.48;;;9.95;;
18812;SDS011;9534;51.140;6.296;2022-12-07T05:42:44;23.23;;;9.80;;
18812;SDS011;9534;51.140;6.296;2022-12-07T05:46:49;32.40;;;9.25;;
18812;SDS011;9534;51.140;6.296;2022-12-07T05:50:52;25.10;;;10.88;;
18812;SDS011;9534;51.140;6.296;2022-12-07T05:54:55;22.23;;;8.75;;
18812;SDS011;9534;51.140;6.296;2022-12-07T05:58:59;20.75;;;9.20;;
18812;SDS011;9534;51.140;6.296;2022-12-07T06:03:20;19.02;;;8.70;;
18812;SDS011;9534;51.140;6.296;2022-12-07T06:07:24;29.15;;;10.63;;
18812;SDS011;9534;51.140;6.296;2022-12-07T06:11:27;21.70;;;9.30;;
18812;SDS011;9534;51.140;6.296;2022-12-07T06:15:48;21.75;;;10.35;;
18812;SDS011;9534;51.140;6.296;2022-12-07T06:19:52;28.60;;;10.57;;
18812;SDS011;9534;51.140;6.296;2022-12-07T06:23:55;27.23;;;10.73;;
18812;SDS011;9534;51.140;6.296;2022-12-07T06:27:58;24.50;;;9.07;;
18812;SDS011;9534;51.140;6.296;2022-12-07T06:32:02;22.10;;;8.43;;
18812;SDS011;9534;51.140;6.296;2022-12-07T06:36:08;24.23;;;9.32;;
18812;SDS011;9534;51.140;6.296;2022-12-07T06:40:11;17.23;;;8.48;;
18812;SDS011;9534;51.140;6.296;2022-12-07T06:44:15;21.25;;;8.10;;
18812;SDS011;9534;51.140;6.296;2022-12-07T06:48:18;23.73;;;9.77;;
18812;SDS011;9534;51.140;6.296;2022-12-07T06:52:23;17.52;;;8.13;;
18812;SDS011;9534;51.140;6.296;2022-12-07T06:56:26;23.08;;;9.20;;
18812;SDS011;9534;51.140;6.296;2022-12-07T07:00:30;18.60;;;7.90;;
18812;SDS011;9534;51.140;6.296;2022-12-07T07:04:33;22.08;;;9.90;;
18812;SDS011;9534;51.140;6.296;2022-12-07T07:08:38;27.70;;;9.43;;
18812;SDS011;9534;51.140;6.296;2022-12-07T07:12:42;17.63;;;7.63;;
18812;SDS011;9534;51.140;6.296;2022-12-07T07:16:45;20.00;;;8.80;;
18812;SDS011;9534;51.140;6.296;2022-12-07T07:20:48;20.52;;;8.57;;
18812;SDS011;9534;51.140;6.296;2022-12-07T07:24:54;16.52;;;5.82;;
18812;SDS011;9534;51.140;6.296;2022-12-07T07:28:57;15.90;;;7.63;;
18812;SDS011;9534;51.140;6.296;2022-12-07T07:33:00;23.38;;;8.63;;
18812;SDS011;9534;51.140;6.296;2022-12-07T07:37:12;28.08;;;7.95;;
18812;SDS011;9534;51.140;6.296;2022-12-07T07:41:23;17.88;;;7.60;;
18812;SDS011;9534;51.140;6.296;2022-12-07T07:45:27;24.83;;;9.25;;
18812;SDS011;9534;51.140;6.296;2022-12-07T07:49:30;21.55;;;7.88;;
18812;SDS011;9534;51.140;6.296;2022-12-07T07:53:33;21.50;;;8.13;;
18812;SDS011;9534;51.140;6.296;2022-12-07T07:57:38;20.48;;;8.77;;
18812;SDS011;9534;51.140;6.296;2022-12-07T08:01:44;28.75;;;10.35;;
18812;SDS011;9534;51.140;6.296;2022-12-07T08:05:47;26.38;;;11.30;;
18812;SDS011;9534;51.140;6.296;2022-12-07T08:09:50;20.30;;;8.40;;
18812;SDS011;9534;51.140;6.296;2022-12-07T08:13:55;19.13;;;8.65;;
18812;SDS011;9534;51.140;6.296;2022-12-07T08:17:58;22.45;;;8.65;;
18812;SDS011;9534;51.140;6.296;2022-12-07T08:22:02;34.42;;;10.48;;
18812;SDS011;9534;51.140;6.296;2022-12-07T08:26:06;29.15;;;9.32;;
18812;SDS011;9534;51.140;6.296;2022-12-07T08:30:12;20.02;;;8.98;;
18812;SDS011;9534;51.140;6.296;2022-12-07T08:34:16;21.65;;;9.32;;
18812;SDS011;9534;51.140;6.296;2022-12-07T08:38:19;24.10;;;9.95;;
18812;SDS011;9534;51.140;6.296;2022-12-07T08:42:29;23.90;;;9.85;;
18812;SDS011;9534;51.140;6.296;2022-12-07T08:46:41;22.40;;;8.32;;
18812;SDS011;9534;51.140;6.296;2022-12-07T08:50:48;18.90;;;8.85;;
18812;SDS011;9534;51.140;6.296;2022-12-07T08:54:52;25.20;;;9.60;;
18812;SDS011;9534;51.140;6.296;2022-12-07T08:58:55;20.73;;;9.23;;
18812;SDS011;9534;51.140;6.296;2022-12-07T09:03:00;25.65;;;9.75;;
18812;SDS011;9534;51.140;6.296;2022-12-07T09:07:03;28.20;;;9.65;;
18812;SDS011;9534;51.140;6.296;2022-12-07T09:11:06;17.10;;;8.27;;
18812;SDS011;9534;51.140;6.296;2022-12-07T09:15:10;17.55;;;8.07;;
18812;SDS011;9534;51.140;6.296;2022-12-07T09:19:14;32.78;;;9.40;;
18812;SDS011;9534;51.140;6.296;2022-12-07T09:23:17;25.20;;;10.27;;
18812;SDS011;9534;51.140;6.296;2022-12-07T09:27:21;21.48;;;10.15;;
18812;SDS011;9534;51.140;6.296;2022-12-07T09:31:24;21.75;;;9.38;;
18812;SDS011;9534;51.140;6.296;2022-12-07T09:35:29;21.98;;;9.52;;
18812;SDS011;9534;51.140;6.296;2022-12-07T09:39:32;23.02;;;7.80;;
18812;SDS011;9534;51.140;6.296;2022-12-07T09:43:35;31.75;;;9.52;;
18812;SDS011;9534;51.140;6.296;2022-12-07T09:47:41;22.92;;;7.82;;
18812;SDS011;9534;51.140;6.296;2022-12-07T09:51:46;24.90;;;8.35;;
18812;SDS011;9534;51.140;6.296;2022-12-07T09:55:51;29.63;;;10.05;;
18812;SDS011;9534;51.140;6.296;2022-12-07T09:59:56;23.38;;;9.23;;
18812;SDS011;9534;51.140;6.296;2022-12-07T10:04:09;22.13;;;8.52;;
18812;SDS011;9534;51.140;6.296;2022-12-07T10:08:17;27.60;;;9.73;;
18812;SDS011;9534;51.140;6.296;2022-12-07T10:12:20;20.75;;;7.88;;
18812;SDS011;9534;51.140;6.296;2022-12-07T10:16:29;26.85;;;9.73;;
18812;SDS011;9534;51.140;6.296;2022-12-07T10:20:39;27.65;;;10.52;;
18812;SDS011;9534;51.140;6.296;2022-12-07T10:24:46;24.17;;;8.93;;
18812;SDS011;9534;51.140;6.296;2022-12-07T10:28:50;23.08;;;8.73;;
18812;SDS011;9534;51.140;6.296;2022-12-07T10:32:53;17.95;;;7.93;;
18812;SDS011;9534;51.140;6.296;2022-12-07T10:37:11;19.90;;;6.97;;
18812;SDS011;9534;51.140;6.296;2022-12-07T10:41:19;20.20;;;7.10;;
18812;SDS011;9534;51.140;6.296;2022-12-07T10:45:22;16.63;;;5.45;;
18812;SDS011;9534;51.140;6.296;2022-12-07T10:54:03;24.80;;;8.35;;
18812;SDS011;9534;51.140;6.296;2022-12-07T10:58:18;11.88;;;4.53;;
18812;SDS011;9534;51.140;6.296;2022-12-07T11:02:48;15.20;;;6.55;;
18812;SDS011;9534;51.140;6.296;2022-12-07T11:07:00;23.20;;;7.20;;
18812;SDS011;9534;51.140;6.296;2022-12-07T11:11:09;18.77;;;6.85;;
18812;SDS011;9534;51.140;6.296;2022-12-07T11:15:20;19.23;;;6.57;;
18812;SDS011;9534;51.140;6.296;2022-12-07T11:19:39;13.00;;;4.30;;
18812;SDS011;9534;51.140;6.296;2022-12-07T11:23:56;14.15;;;5.07;;
18812;SDS011;9534;51.140;6.296;2022-12-07T11:28:10;12.52;;;4.90;;
18812;SDS011;9534;51.140;6.296;2022-12-07T11:32:29;18.80;;;5.18;;
18812;SDS011;9534;51.140;6.296;2022-12-07T11:36:45;13.75;;;4.85;;
18812;SDS011;9534;51.140;6.296;2022-12-07T11:40:51;7.07;;;3.67;;
18812;SDS011;9534;51.140;6.296;2022-12-07T11:45:16;11.52;;;4.65;;
18812;SDS011;9534;51.140;6.296;2022-12-07T11:49:29;10.30;;;3.85;;
18812;SDS011;9534;51.140;6.296;2022-12-07T11:53:44;12.85;;;6.00;;
18812;SDS011;9534;51.140;6.296;2022-12-07T11:57:54;13.68;;;4.80;;
18812;SDS011;9534;51.140;6.296;2022-12-07T12:02:10;12.07;;;4.13;;
18812;SDS011;9534;51.140;6.296;2022-12-07T12:06:18;12.02;;;5.25;;
18812;SDS011;9534;51.140;6.296;2022-12-07T12:10:24;10.25;;;3.75;;
18812;SDS011;9534;51.140;6.296;2022-12-07T12:14:40;8.32;;;4.22;;
18812;SDS011;9534;51.140;6.296;2022-12-07T12:18:58;14.05;;;5.22;;
18812;SDS011;9534;51.140;6.296;2022-12-07T12:23:16;14.77;;;4.90;;
18812;SDS011;9534;51.140;6.296;2022-12-07T12:27:23;10.60;;;4.22;;
18812;SDS011;9534;51.140;6.296;2022-12-07T12:31:31;13.38;;;4.55;;
18812;SDS011;9534;51.140;6.296;2022-12-07T12:35:38;9.80;;;4.18;;
18812;SDS011;9534;51.140;6.296;2022-12-07T12:39:43;8.52;;;3.28;;
18812;SDS011;9534;51.140;6.296;2022-12-07T12:44:41;7.05;;;3.53;;
18812;SDS011;9534;51.140;6.296;2022-12-07T12:53:40;7.35;;;2.60;;
18812;SDS011;9534;51.140;6.296;2022-12-07T12:57:44;11.98;;;4.68;;
18812;SDS011;9534;51.140;6.296;2022-12-07T13:02:09;10.40;;;4.50;;
18812;SDS011;9534;51.140;6.296;2022-12-07T13:06:20;7.80;;;2.72;;
18812;SDS011;9534;51.140;6.296;2022-12-07T13:10:41;6.65;;;2.58;;
18812;SDS011;9534;51.140;6.296;2022-12-07T13:24:06;5.45;;;2.25;;
18812;SDS011;9534;51.140;6.296;2022-12-07T13:28:14;8.45;;;2.22;;
18812;SDS011;9534;51.140;6.296;2022-12-07T13:32:22;9.75;;;2.78;;
18812;SDS011;9534;51.140;6.296;2022-12-07T13:36:29;3.55;;;1.05;;
18812;SDS011;9534;51.140;6.296;2022-12-07T13:40:37;4.65;;;1.70;;
18812;SDS011;9534;51.140;6.296;2022-12-07T13:44:40;2.45;;;1.58;;
18812;SDS011;9534;51.140;6.296;2022-12-07T13:48:45;6.20;;;2.08;;
18812;SDS011;9534;51.140;6.296;2022-12-07T13:52:54;4.88;;;2.63;;
18812;SDS011;9534;51.140;6.296;2022-12-07T13:56:58;6.85;;;2.00;;
18812;SDS011;9534;51.140;6.296;2022-12-07T14:01:01;3.83;;;1.55;;
18812;SDS011;9534;51.140;6.296;2022-12-07T14:05:06;3.60;;;1.23;;
18812;SDS011;9534;51.140;6.296;2022-12-07T14:09:19;3.78;;;1.58;;
18812;SDS011;9534;51.140;6.296;2022-12-07T14:13:26;2.38;;;1.42;;
18812;SDS011;9534;51.140;6.296;2022-12-07T14:17:33;4.38;;;1.80;;
18812;SDS011;9534;51.140;6.296;2022-12-07T14:21:36;8.30;;;1.77;;
18812;SDS011;9534;51.140;6.296;2022-12-07T14:25:47;4.88;;;1.88;;
18812;SDS011;9534;51.140;6.296;2022-12-07T14:29:53;6.05;;;2.53;;
18812;SDS011;9534;51.140;6.296;2022-12-07T14:33:58;7.72;;;1.95;;
18812;SDS011;9534;51.140;6.296;2022-12-07T14:38:01;4.93;;;2.80;;
18812;SDS011;9534;51.140;6.296;2022-12-07T14:42:07;6.93;;;2.42;;
18812;SDS011;9534;51.140;6.296;2022-12-07T14:46:10;5.18;;;2.30;;
18812;SDS011;9534;51.140;6.296;2022-12-07T14:50:13;3.15;;;1.98;;
18812;SDS011;9534;51.140;6.296;2022-12-07T14:54:19;7.97;;;2.80;;
18812;SDS011;9534;51.140;6.296;2022-12-07T14:58:27;6.55;;;2.30;;
18812;SDS011;9534;51.140;6.296;2022-12-07T15:02:31;7.03;;;2.70;;
18812;SDS011;9534;51.140;6.296;2022-12-07T15:06:34;4.88;;;2.90;;
18812;SDS011;9534;51.140;6.296;2022-12-07T15:10:37;28.00;;;8.55;;
18812;SDS011;9534;51.140;6.296;2022-12-07T15:14:43;12.38;;;4.53;;
18812;SDS011;9534;51.140;6.296;2022-12-07T15:18:46;20.13;;;8.15;;
18812;SDS011;9534;51.140;6.296;2022-12-07T15:23:09;12.00;;;6.95;;
18812;SDS011;9534;51.140;6.296;2022-12-07T15:27:13;7.35;;;2.10;;
18812;SDS011;9534;51.140;6.296;2022-12-07T15:31:18;12.65;;;6.43;;
18812;SDS011;9534;51.140;6.296;2022-12-07T15:35:41;11.38;;;4.15;;
18812;SDS011;9534;51.140;6.296;2022-12-07T15:39:44;24.30;;;11.98;;
18812;SDS011;9534;51.140;6.296;2022-12-07T15:43:48;12.32;;;4.45;;
18812;SDS011;9534;51.140;6.296;2022-12-07T15:48:10;10.77;;;5.43;;
18812;SDS011;9534;51.140;6.296;2022-12-07T15:52:30;8.68;;;4.72;;
18812;SDS011;9534;51.140;6.296;2022-12-07T15:56:33;8.02;;;3.88;;
18812;SDS011;9534;51.140;6.296;2022-12-07T16:00:37;10.93;;;4.53;;
18812;SDS011;9534;51.140;6.296;2022-12-07T16:04:41;8.95;;;5.35;;
18812;SDS011;9534;51.140;6.296;2022-12-07T16:08:45;13.38;;;4.72;;
18812;SDS011;9534;51.140;6.296;2022-12-07T16:12:49;18.85;;;7.03;;
18812;SDS011;9534;51.140;6.296;2022-12-07T16:16:53;12.15;;;5.40;;
18812;SDS011;9534;51.140;6.296;2022-12-07T16:20:57;25.30;;;11.98;;
18812;SDS011;9534;51.140;6.296;2022-12-07T16:25:00;14.77;;;6.07;;
18812;SDS011;9534;51.140;6.296;2022-12-07T16:29:04;22.33;;;10.18;;
18812;SDS011;9534;51.140;6.296;2022-12-07T16:33:08;21.42;;;8.50;;
18812;SDS011;9534;51.140;6.296;2022-12-07T16:37:12;17.25;;;9.68;;
18812;SDS011;9534;51.140;6.296;2022-12-07T16:41:16;26.40;;;11.52;;
18812;SDS011;9534;51.140;6.296;2022-12-07T16:45:19;6.70;;;4.00;;
18812;SDS011;9534;51.140;6.296;2022-12-07T16:49:23;10.95;;;5.65;;
18812;SDS011;9534;51.140;6.296;2022-12-07T16:53:28;19.60;;;6.30;;
18812;SDS011;9534;51.140;6.296;2022-12-07T16:57:31;20.48;;;7.78;;
18812;SDS011;9534;51.140;6.296;2022-12-07T17:01:35;19.23;;;8.30;;
18812;SDS011;9534;51.140;6.296;2022-12-07T17:05:39;18.80;;;6.03;;
18812;SDS011;9534;51.140;6.296;2022-12-07T17:09:45;13.95;;;7.25;;
18812;SDS011;9534;51.140;6.296;2022-12-07T17:13:49;23.88;;;6.65;;
18812;SDS011;9534;51.140;6.296;2022-12-07T17:18:11;16.83;;;5.13;;
18812;SDS011;9534;51.140;6.296;2022-12-07T17:22:15;22.00;;;7.57;;
18812;SDS011;9534;51.140;6.296;2022-12-07T17:26:21;16.88;;;6.50;;
18812;SDS011;9534;51.140;6.296;2022-12-07T17:30:34;16.52;;;6.95;;
18812;SDS011;9534;51.140;6.296;2022-12-07T17:34:37;12.95;;;5.25;;
18812;SDS011;9534;51.140;6.296;2022-12-07T17:38:40;11.23;;;5.32;;
18812;SDS011;9534;51.140;6.296;2022-12-07T17:42:45;17.45;;;4.35;;
18812;SDS011;9534;51.140;6.296;2022-12-07T17:46:52;14.40;;;5.68;;
18812;SDS011;9534;51.140;6.296;2022-12-07T17:50:58;8.77;;;4.70;;
18812;SDS011;9534;51.140;6.296;2022-12-07T17:55:25;10.82;;;4.93;;
18812;SDS011;9534;51.140;6.296;2022-12-07T17:59:29;9.85;;;4.20;;
18812;SDS011;9534;51.140;6.296;2022-12-07T18:03:33;13.35;;;6.22;;
18812;SDS011;9534;51.140;6.296;2022-12-07T18:07:36;15.25;;;6.05;;
18812;SDS011;9534;51.140;6.296;2022-12-07T18:11:40;13.52;;;5.63;;
18812;SDS011;9534;51.140;6.296;2022-12-07T18:15:44;9.98;;;4.22;;
18812;SDS011;9534;51.140;6.296;2022-12-07T18:19:48;15.65;;;5.50;;
18812;SDS011;9534;51.140;6.296;2022-12-07T18:23:52;16.27;;;6.43;;
18812;SDS011;9534;51.140;6.296;2022-12-07T18:27:56;12.38;;;5.57;;
18812;SDS011;9534;51.140;6.296;2022-12-07T18:32:01;14.50;;;5.15;;
18812;SDS011;9534;51.140;6.296;2022-12-07T18:36:07;17.92;;;6.35;;
18812;SDS011;9534;51.140;6.296;2022-12-07T18:40:11;15.60;;;5.43;;
18812;SDS011;9534;51.140;6.296;2022-12-07T18:44:15;11.85;;;4.95;;
18812;SDS011;9534;51.140;6.296;2022-12-07T18:48:21;16.45;;;6.78;;
18812;SDS011;9534;51.140;6.296;2022-12-07T18:52:24;14.10;;;5.93;;
18812;SDS011;9534;51.140;6.296;2022-12-07T18:56:31;11.52;;;6.15;;
18812;SDS011;9534;51.140;6.296;2022-12-07T19:00:35;21.02;;;7.82;;
18812;SDS011;9534;51.140;6.296;2022-12-07T19:04:43;17.52;;;7.28;;
18812;SDS011;9534;51.140;6.296;2022-12-07T19:08:46;18.45;;;7.00;;
18812;SDS011;9534;51.140;6.296;2022-12-07T19:12:49;14.93;;;4.72;;
18812;SDS011;9534;51.140;6.296;2022-12-07T19:16:53;17.90;;;7.60;;
18812;SDS011;9534;51.140;6.296;2022-12-07T19:21:02;12.80;;;6.00;;
18812;SDS011;9534;51.140;6.296;2022-12-07T19:25:06;22.08;;;5.80;;
18812;SDS011;9534;51.140;6.296;2022-12-07T19:29:10;13.82;;;5.70;;
18812;SDS011;9534;51.140;6.296;2022-12-07T19:33:13;15.63;;;5.85;;
18812;SDS011;9534;51.140;6.296;2022-12-07T19:37:17;17.92;;;5.90;;
18812;SDS011;9534;51.140;6.296;2022-12-07T19:41:20;18.05;;;7.28;;
18812;SDS011;9534;51.140;6.296;2022-12-07T19:45:35;14.30;;;6.00;;
18812;SDS011;9534;51.140;6.296;2022-12-07T19:49:38;40.30;;;6.93;;
18812;SDS011;9534;51.140;6.296;2022-12-07T19:53:43;16.67;;;6.20;;
18812;SDS011;9534;51.140;6.296;2022-12-07T19:57:46;17.58;;;7.22;;
18812;SDS011;9534;51.140;6.296;2022-12-07T20:01:49;17.48;;;7.80;;
18812;SDS011;9534;51.140;6.296;2022-12-07T20:05:53;14.57;;;6.53;;
18812;SDS011;9534;51.140;6.296;2022-12-07T20:09:59;17.60;;;5.65;;
18812;SDS011;9534;51.140;6.296;2022-12-07T20:14:04;14.73;;;5.88;;
18812;SDS011;9534;51.140;6.296;2022-12-07T20:18:08;15.82;;;7.18;;
18812;SDS011;9534;51.140;6.296;2022-12-07T20:22:11;19.20;;;7.82;;
18812;SDS011;9534;51.140;6.296;2022-12-07T20:26:15;32.72;;;7.88;;
18812;SDS011;9534;51.140;6.296;2022-12-07T20:30:18;20.02;;;7.93;;
18812;SDS011;9534;51.140;6.296;2022-12-07T20:34:21;21.65;;;6.45;;
18812;SDS011;9534;51.140;6.296;2022-12-07T20:38:26;25.30;;;6.72;;
18812;SDS011;9534;51.140;6.296;2022-12-07T20:42:31;16.08;;;7.55;;
18812;SDS011;9534;51.140;6.296;2022-12-07T20:46:40;16.33;;;6.63;;
18812;SDS011;9534;51.140;6.296;2022-12-07T20:50:44;17.77;;;6.75;;
18812;SDS011;9534;51.140;6.296;2022-12-07T20:54:47;23.55;;;7.65;;
18812;SDS011;9534;51.140;6.296;2022-12-07T20:58:51;15.30;;;7.03;;
18812;SDS011;9534;51.140;6.296;2022-12-07T21:02:55;22.77;;;7.47;;
18812;SDS011;9534;51.140;6.296;2022-12-07T21:06:58;13.23;;;5.93;;
18812;SDS011;9534;51.140;6.296;2022-12-07T21:11:05;16.42;;;5.93;;
18812;SDS011;9534;51.140;6.296;2022-12-07T21:15:10;14.32;;;7.10;;
18812;SDS011;9534;51.140;6.296;2022-12-07T21:19:13;12.90;;;5.90;;
18812;SDS011;9534;51.140;6.296;2022-12-07T21:23:17;16.92;;;7.25;;
18812;SDS011;9534;51.140;6.296;2022-12-07T21:27:20;34.60;;;7.28;;
18812;SDS011;9534;51.140;6.296;2022-12-07T21:31:24;17.25;;;8.15;;
18812;SDS011;9534;51.140;6.296;2022-12-07T21:35:27;14.75;;;5.75;;
18812;SDS011;9534;51.140;6.296;2022-12-07T21:39:31;13.15;;;5.82;;
18812;SDS011;9534;51.140;6.296;2022-12-07T21:43:34;12.70;;;4.80;;
18812;SDS011;9534;51.140;6.296;2022-12-07T21:47:38;17.70;;;7.03;;
18812;SDS011;9534;51.140;6.296;2022-12-07T21:51:42;15.25;;;7.93;;
18812;SDS011;9534;51.140;6.296;2022-12-07T21:55:45;24.58;;;6.60;;
18812;SDS011;9534;51.140;6.296;2022-12-07T21:59:48;18.55;;;6.80;;
18812;SDS011;9534;51.140;6.296;2022-12-07T22:03:52;15.10;;;7.47;;
18812;SDS011;9534;51.140;6.296;2022-12-07T22:07:56;13.02;;;6.13;;
18812;SDS011;9534;51.140;6.296;2022-12-07T22:11:59;16.65;;;6.55;;
18812;SDS011;9534;51.140;6.296;2022-12-07T22:16:02;15.95;;;6.85;;
18812;SDS011;9534;51.140;6.296;2022-12-07T22:20:08;10.90;;;4.78;;
18812;SDS011;9534;51.140;6.296;2022-12-07T22:24:11;21.40;;;7.55;;
18812;SDS011;9534;51.140;6.296;2022-12-07T22:28:15;17.77;;;7.80;;
18812;SDS011;9534;51.140;6.296;2022-12-07T22:32:18;17.48;;;6.68;;
18812;SDS011;9534;51.140;6.296;2022-12-07T22:36:42;13.18;;;5.90;;
18812;SDS011;9534;51.140;6.296;2022-12-07T22:40:46;16.33;;;6.40;;
18812;SDS011;9534;51.140;6.296;2022-12-07T22:44:49;11.40;;;5.93;;
18812;SDS011;9534;51.140;6.296;2022-12-07T22:48:53;13.68;;;6.43;;
18812;SDS011;9534;51.140;6.296;2022-12-07T22:52:57;16.17;;;5.85;;
18812;SDS011;9534;51.140;6.296;2022-12-07T22:57:00;11.77;;;5.07;;
18812;SDS011;9534;51.140;6.296;2022-12-07T23:01:05;14.40;;;6.20;;
18812;SDS011;9534;51.140;6.296;2022-12-07T23:05:10;15.10;;;6.88;;
18812;SDS011;9534;51.140;6.296;2022-12-07T23:09:15;13.70;;;6.30;;
18812;SDS011;9534;51.140;6.296;2022-12-07T23:13:18;14.95;;;6.07;;
18812;SDS011;9534;51.140;6.296;2022-12-07T23:17:34;13.70;;;6.95;;
18812;SDS011;9534;51.140;6.296;2022-12-07T23:21:38;9.88;;;4.70;;
18812;SDS011;9534;51.140;6.296;2022-12-07T23:25:42;16.90;;;7.25;;
18812;SDS011;9534;51.140;6.296;2022-12-07T23:29:45;10.18;;;4.60;;
18812;SDS011;9534;51.140;6.296;2022-12-07T23:33:49;10.88;;;5.72;;
18812;SDS011;9534;51.140;6.296;2022-12-07T23:37:52;12.48;;;5.68;;
18812;SDS011;9534;51.140;6.296;2022-12-07T23:41:56;10.40;;;5.20;;
18812;SDS011;9534;51.140;6.296;2022-12-07T23:45:59;12.02;;;5.28;;
18812;SDS011;9534;51.140;6.296;2022-12-07T23:50:03;14.10;;;5.80;;
18812;SDS011;9534;51.140;6.296;2022-12-07T23:54:06;9.50;;;4.68;;
18812;SDS011;9534;51.140;6.296;2022-12-07T23:58:11;14.05;;;6.70;;
